Willetsville, Ohio
Current Conditions -  °F | °C
As of 3:54 AM on Thursday 18 Dec 2014 (Local Time) from KILN Reporting Station
Overcast Overcast  
Wind Chill: 18°   Ceiling: 2600
Heat Index: 25°   Visibility: 10mi
Dew Point: 18°   Wind: 6mph
Humidity: 75%   Direction: 260°W
Pressure: 30.25"   Gusts: NA
Location:  39.1546°N, 83.569°W
Report Text: KILN 180854Z AUTO 26005KT 10SM OVC026 M04/M08 A3025 RMK AO2 SLP275 T10391078 50001
Loading
Personal Weather Stations






























Interactive Weather Map New forecast layout! Learn more

10-Day Weather Forecast

Advertisements
Track Severe Weather on mobile